Kemp, Texas
Current Conditions -  °F | °C
As of 6:53 AM on Saturday 25 Oct 2014 (Local Time) from KTRL Reporting Station
Clear Clear  
Wind Chill: 61°   Ceiling: Unl
Heat Index: 61°   Visibility: 10mi
Dew Point: 58°   Wind: 3mph
Humidity: 90%   Direction: 180°S
Pressure: 30.14"   Gusts: NA
Location:  32.44°N, 96.23°W
Report Text: KTRL 251153Z AUTO 18003KT 10SM CLR 16/14 A3014 RMK AO2 SLP201 T01610144 10183 20156 53006
Loading
Personal Weather Stations






























Interactive Weather Map
Tropical Storm Tracking
New forecast layout! Learn more

10-Day Weather Forecast

Advertisements
Track Severe Weather on mobile